Time;durP1;ratioP1;P1;durP2;ratioP2;P2;SDS_P1;SDS_P2;PMS_P1;PMS_P2;Temp;Humidity;BMP_temperature;BMP_pressure;BME280_temperature;BME280_humidity;BME280_pressure;Samples;Min_cycle;Max_cycle;Signal;HPM_P1;HPM_P2
2023/01/29 00:01:58;;;;;;;34.97;27.25;;;;;;;0.47;100.00;160697.16;5030891;28;20056;-64
2023/01/29 00:04:24;;;;;;;36.83;26.13;;;;;;;0.49;100.00;160701.16;5034026;28;20032;-63
2023/01/29 00:06:49;;;;;;;36.47;27.45;;;;;;;0.43;100.00;160685.06;5032063;28;20577;-63
2023/01/29 00:09:14;;;;;;;36.72;25.63;;;;;;;0.47;100.00;160697.16;5033686;28;20021;-64
2023/01/29 00:11:40;;;;;;;38.00;25.55;;;;;;;0.49;100.00;160701.16;5032472;28;20451;-63
2023/01/29 00:14:05;;;;;;;42.47;30.35;;;;;;;0.49;100.00;160701.16;5033301;28;20037;-64
2023/01/29 00:16:31;;;;;;;39.50;27.77;;;;;;;0.49;100.00;160701.16;5032169;28;20037;-64
2023/01/29 00:18:56;;;;;;;39.63;24.98;;;;;;;0.44;100.00;160687.75;5034232;28;20033;-64
2023/01/29 00:21:21;;;;;;;35.95;24.35;;;;;;;0.42;100.00;160683.75;5031714;28;20412;-63
2023/01/29 00:23:47;;;;;;;39.28;28.13;;;;;;;0.29;100.00;160650.22;5033705;28;20025;-64
2023/01/29 00:26:13;;;;;;;41.15;27.20;;;;;;;0.25;100.00;160639.53;5032308;28;20045;-63
2023/01/29 00:28:39;;;;;;;38.55;27.85;;;;;;;0.35;100.00;160663.63;5033096;28;20025;-64
2023/01/29 00:31:09;;;;;;;37.15;26.92;;;;;;;0.42;100.00;160682.38;5031904;28;20568;-64
2023/01/29 00:33:35;;;;;;;38.80;27.45;;;;;;;0.51;100.00;160706.53;5033527;28;20443;-65
2023/01/29 00:36:08;;;;;;;34.67;26.33;;;;;;;0.49;100.00;160701.16;5031748;28;20038;-64
2023/01/29 00:38:34;;;;;;;39.17;26.95;;;;;;;0.51;100.00;160705.22;5032995;28;20033;-64
2023/01/29 00:46:43;;;;;;;40.15;28.17;;;;;;;0.36;100.00;160667.69;5012395;28;20049;-63
2023/01/29 00:49:09;;;;;;;34.22;24.02;;;;;;;0.40;100.00;160677.06;5013053;28;20026;-63
2023/01/29 00:51:35;;;;;;;41.97;26.77;;;;;;;0.43;100.00;160685.06;5011756;28;20477;-64
2023/01/29 00:54:01;;;;;;;38.25;27.73;;;;;;;0.45;100.00;160690.44;5013347;28;20080;-64
2023/01/29 00:56:28;;;;;;;38.80;27.25;;;;;;;0.46;100.00;160693.13;5028455;28;20488;-64
2023/01/29 00:58:54;;;;;;;40.58;25.80;;;;;;;0.43;100.00;160686.44;5031060;28;20052;-64
2023/01/29 01:03:04;;;;;;;35.33;25.92;;;;;;;0.44;100.00;160689.13;5029885;28;20042;-64
2023/01/29 01:04:06;;;;;;;38.42;28.05;;;;;;;0.42;100.00;160682.38;5032663;28;20037;-64
2023/01/29 01:06:31;;;;;;;39.15;26.38;;;;;;;0.43;100.00;160685.06;5031128;28;20129;-64
2023/01/29 01:11:40;;;;;;;36.60;27.45;;;;;;;0.42;100.00;160683.75;5030880;28;20049;-64
2023/01/29 01:14:06;;;;;;;36.92;26.42;;;;;;;0.41;100.00;160679.75;5032824;28;20022;-64
2023/01/29 01:16:31;;;;;;;41.13;28.20;;;;;;;0.39;100.00;160674.38;5031067;28;20095;-64
2023/01/29 01:18:56;;;;;;;37.60;26.60;;;;;;;0.38;100.00;160673.00;5032547;28;20052;-64
2023/01/29 01:21:22;;;;;;;38.45;27.80;;;;;;;0.42;100.00;160683.75;5030878;28;20052;-64
2023/01/29 01:23:47;;;;;;;37.28;26.67;;;;;;;0.40;100.00;160677.06;5032686;28;20030;-64
2023/01/29 01:26:12;;;;;;;44.30;29.52;;;;;;;0.41;100.00;160681.06;5030725;28;20037;-64
2023/01/29 01:28:38;;;;;;;38.05;26.20;;;;;;;0.43;100.00;160685.06;5032186;28;20021;-63
2023/01/29 01:31:10;;;;;;;35.20;26.48;;;;;;;0.41;100.00;160679.75;5031042;28;20048;-63
2023/01/29 01:33:36;;;;;;;39.45;29.25;;;;;;;0.42;100.00;160682.38;5032066;28;20380;-63
2023/01/29 01:36:02;;;;;;;35.15;24.83;;;;;;;0.45;100.00;160690.44;5031089;28;20041;-63
2023/01/29 01:38:27;;;;;;;41.70;27.63;;;;;;;0.46;100.00;160694.44;5032061;28;20025;-63
2023/01/29 01:40:53;;;;;;;37.25;28.17;;;;;;;0.46;100.00;160693.13;5030484;28;20044;-63
2023/01/29 01:43:18;;;;;;;39.00;26.33;;;;;;;0.46;100.00;160693.13;5031783;28;20380;-63
2023/01/29 01:45:45;;;;;;;34.88;28.20;;;;;;;0.49;100.00;160699.84;5030902;28;20042;-63
2023/01/29 01:48:23;;;;;;;41.17;28.27;;;;;;;0.49;100.00;160701.16;5032130;28;20480;-63
2023/01/29 01:50:59;;;;;;;43.42;30.73;;;;;;;0.37;100.00;160669.00;5030515;28;20500;-63
2023/01/29 01:53:57;;;;;;;43.72;26.88;;;;;;;0.48;100.00;160698.50;5031079;28;20029;-66
2023/01/29 01:56:39;;;;;;;42.63;28.05;;;;;;;0.43;100.00;160685.06;5028622;28;20045;-65
2023/01/29 01:59:08;;;;;;;39.50;28.15;;;;;;;0.38;100.00;160673.00;5032300;28;20044;-65
2023/01/29 02:01:34;;;;;;;42.25;29.48;;;;;;;0.44;100.00;160687.75;5030217;28;20049;-65
2023/01/29 02:09:56;;;;;;;41.28;29.70;;;;;;;0.40;100.00;160678.38;5031229;28;20072;-63
2023/01/29 02:12:22;;;;;;;43.15;28.58;;;;;;;0.39;100.00;160674.38;5029887;28;20120;-63
2023/01/29 02:14:50;;;;;;;37.10;26.23;;;;;;;0.41;100.00;160679.75;5031682;28;20029;-63
2023/01/29 02:17:18;;;;;;;36.53;28.50;;;;;;;0.40;100.00;160677.06;5029963;28;20041;-63
2023/01/29 02:20:10;;;;;;;47.50;31.20;;;;;;;0.40;100.00;160678.38;5030863;28;20052;-63
2023/01/29 02:23:00;;;;;;;40.17;27.77;;;;;;;0.39;100.00;160674.38;5030208;28;20493;-63
2023/01/29 02:25:58;;;;;;;40.25;28.75;;;;;;;0.42;100.00;160683.75;5029367;28;20129;-63
2023/01/29 02:28:47;;;;;;;34.60;26.60;;;;;;;0.41;100.00;160681.06;5030289;28;20034;-63
2023/01/29 02:31:26;;;;;;;41.45;27.50;;;;;;;0.45;100.00;160691.75;5029838;28;20080;-63
2023/01/29 02:34:08;;;;;;;44.08;34.20;;;;;;;0.46;100.00;160693.13;5031281;28;20051;-64
2023/01/29 02:36:43;;;;;;;41.67;29.67;;;;;;;0.43;100.00;160686.44;5029713;28;20038;-63
2023/01/29 02:39:31;;;;;;;39.28;28.45;;;;;;;0.41;100.00;160681.06;5031052;28;20029;-64
2023/01/29 02:42:02;;;;;;;;;;;;;;;0.41;100.00;160679.75;5029906;28;20048;-64
2023/01/29 02:44:47;;;;;;;43.03;29.95;;;;;;;0.41;100.00;160681.06;5031196;28;19916;-64
2023/01/29 02:47:26;;;;;;;40.35;28.75;;;;;;;0.36;100.00;160666.31;5029678;28;20045;-64
2023/01/29 02:50:03;;;;;;;40.22;27.40;;;;;;;0.28;100.00;160646.22;5030852;28;20053;-64
2023/01/29 02:52:34;;;;;;;38.17;26.55;;;;;;;0.25;100.00;160638.16;5029416;28;20041;-63
2023/01/29 02:55:10;;;;;;;40.05;28.52;;;;;;;0.19;100.00;160623.41;5029078;28;20037;-63
2023/01/29 02:57:40;;;;;;;45.40;32.17;;;;;;;0.13;100.00;160607.34;5030845;28;20100;-63
2023/01/29 03:00:13;;;;;;;39.55;27.60;;;;;;;0.14;100.00;160610.00;5029748;28;20021;-63
2023/01/29 03:02:51;;;;;;;43.25;31.02;;;;;;;0.18;100.00;160619.41;5030446;28;20029;-64
2023/01/29 03:05:25;;;;;;;39.50;27.50;;;;;;;0.15;100.00;160612.72;5029027;28;20117;-63
2023/01/29 03:07:57;;;;;;;44.35;27.67;;;;;;;0.23;100.00;160634.16;5030716;28;20049;-63
2023/01/29 03:10:29;;;;;;;43.72;30.42;;;;;;;0.28;100.00;160647.53;5028589;28;20465;-63
2023/01/29 03:13:05;;;;;;;43.85;31.25;;;;;;;0.22;100.00;160631.47;5031160;28;20047;-63
2023/01/29 03:15:41;;;;;;;41.85;29.90;;;;;;;0.19;100.00;160622.09;5029089;28;20436;-62
2023/01/29 03:18:20;;;;;;;40.83;29.13;;;;;;;0.27;100.00;160644.84;5030731;28;20025;-63
2023/01/29 03:20:52;;;;;;;46.33;28.02;;;;;;;0.30;100.00;160652.91;5029422;28;20098;-63
2023/01/29 03:34:38;;;;;;;44.88;29.58;;;;;;;0.41;100.00;160679.75;5030720;28;20036;-63
2023/01/29 03:37:35;;;;;;;42.55;29.40;;;;;;;0.40;100.00;160677.06;5029201;28;20541;-63
2023/01/29 03:40:05;;;;;;;39.08;28.90;;;;;;;0.39;100.00;160674.38;5026411;28;20045;-63
2023/01/29 03:42:58;;;;;;;43.38;29.73;;;;;;;0.36;100.00;160666.31;5030302;28;20029;-63
2023/01/29 03:45:42;;;;;;;43.78;30.73;;;;;;;0.35;100.00;160663.63;5028908;28;20057;-64
2023/01/29 03:48:17;;;;;;;40.80;28.23;;;;;;;0.28;100.00;160647.53;5030548;28;20029;-64
2023/01/29 03:50:57;;;;;;;38.50;28.77;;;;;;;0.28;100.00;160647.53;5028574;28;20509;-64
2023/01/29 03:53:30;;;;;;;40.28;32.70;;;;;;;0.26;100.00;160642.16;5030172;28;20108;-63
2023/01/29 03:56:05;;;;;;;43.35;29.27;;;;;;;0.24;100.00;160636.84;5028743;28;20033;-63
2023/01/29 03:58:31;;;;;;;43.25;29.80;;;;;;;0.21;100.00;160627.47;5030403;28;20369;-64
2023/01/29 04:01:01;;;;;;;41.38;28.17;;;;;;;0.19;100.00;160623.41;5028853;28;20117;-63
2023/01/29 04:03:36;;;;;;;42.05;32.10;;;;;;;0.21;100.00;160628.78;5029755;28;20018;-64
2023/01/29 04:06:21;;;;;;;45.00;29.45;;;;;;;0.19;100.00;160623.41;5028355;28;20520;-63
2023/01/29 04:09:08;;;;;;;44.20;30.50;;;;;;;0.15;100.00;160612.72;5030315;28;20489;-64
2023/01/29 04:11:37;;;;;;;41.13;27.42;;;;;;;0.19;100.00;160622.09;5025787;28;20049;-64
2023/01/29 04:14:02;;;;;;;39.95;28.67;;;;;;;0.19;100.00;160623.41;5027777;28;20099;-64
2023/01/29 04:16:35;;;;;;;44.72;32.83;;;;;;;0.20;100.00;160626.09;5028170;28;20572;-64
2023/01/29 04:19:00;;;;;;;40.95;27.25;;;;;;;0.20;100.00;160624.78;5029603;28;20508;-65
2023/01/29 04:21:26;;;;;;;40.00;29.38;;;;;;;0.20;100.00;160624.78;5029072;28;20053;-66
2023/01/29 04:23:53;;;;;;;42.35;29.60;;;;;;;0.19;100.00;160623.41;5032559;28;20101;-66
2023/01/29 04:26:28;;;;;;;44.03;29.40;;;;;;;0.12;100.00;160604.66;5032026;28;20037;-65
2023/01/29 04:29:21;;;;;;;46.58;31.00;;;;;;;0.11;100.00;160602.00;5033473;28;20028;-64
2023/01/29 04:32:12;;;;;;;41.88;29.70;;;;;;;0.14;100.00;160611.38;5031756;28;20100;-64
2023/01/29 04:35:07;;;;;;;42.78;31.13;;;;;;;0.15;100.00;160612.72;5033113;28;20051;-64
2023/01/29 04:37:41;;;;;;;41.83;27.35;;;;;;;0.12;100.00;160604.66;5009693;28;20111;-63
2023/01/29 04:40:14;;;;;;;45.38;30.55;;;;;;;0.12;100.00;160604.66;5031871;28;20071;-63
2023/01/29 04:43:04;;;;;;;41.22;29.98;;;;;;;0.11;100.00;160602.00;5033066;28;20125;-63
2023/01/29 04:45:47;;;;;;;41.70;29.98;;;;;;;0.10;100.00;160599.31;5030197;28;20044;-64
2023/01/29 04:48:47;;;;;;;43.45;31.02;;;;;;;0.09;100.00;160596.63;5032822;28;20029;-64
2023/01/29 04:51:22;;;;;;;46.92;30.02;;;;;;;-0.06;100.00;160559.13;5030912;28;20128;-64
2023/01/29 04:54:06;;;;;;;41.47;30.63;;;;;;;0.02;100.00;160577.88;5032697;28;20053;-63
2023/01/29 04:56:39;;;;;;;39.38;27.40;;;;;;;0.06;100.00;160589.94;5030970;28;20497;-64
2023/01/29 04:59:08;;;;;;;42.45;29.20;;;;;;;0.04;100.00;160583.25;5032786;28;20064;-64
2023/01/29 05:01:35;;;;;;;49.45;34.30;;;;;;;0.05;100.00;160585.88;5030464;28;20100;-64
2023/01/29 05:04:05;;;;;;;48.63;31.52;;;;;;;0.04;100.00;160583.25;5032455;28;20021;-64
2023/01/29 05:06:31;;;;;;;47.20;32.80;;;;;;;-0.02;100.00;160569.81;5030658;28;20574;-64
2023/01/29 05:08:58;;;;;;;43.92;29.33;;;;;;;0.01;100.00;160575.19;5032007;28;20031;-64
2023/01/29 05:11:24;;;;;;;43.75;27.83;;;;;;;0.03;100.00;160580.56;5030631;28;20438;-64
2023/01/29 05:13:49;;;;;;;41.78;28.42;;;;;;;0.07;100.00;160591.25;5032370;28;20029;-64
2023/01/29 05:16:24;;;;;;;45.72;31.15;;;;;;;0.07;100.00;160591.25;5030382;28;20041;-64
2023/01/29 05:18:49;;;;;;;43.40;29.90;;;;;;;0.07;100.00;160591.25;5032295;28;20032;-64
2023/01/29 05:21:14;;;;;;;44.85;29.95;;;;;;;0.08;100.00;160593.94;5030650;28;20045;-63
2023/01/29 05:23:51;;;;;;;38.72;26.27;;;;;;;0.12;100.00;160604.66;5032091;28;20071;-64
2023/01/29 05:29:03;;;;;;;46.70;30.92;;;;;;;0.19;100.00;160623.41;5031969;28;20035;-63
2023/01/29 05:31:28;;;;;;;42.45;29.58;;;;;;;0.20;100.00;160626.09;5029209;28;20424;-63
2023/01/29 05:33:54;;;;;;;38.95;29.02;;;;;;;0.20;100.00;160624.78;5031997;28;20029;-63
2023/01/29 05:36:20;;;;;;;38.55;27.65;;;;;;;0.20;100.00;160626.09;5030116;28;20049;-63
2023/01/29 05:38:45;;;;;;;45.53;32.30;;;;;;;0.21;100.00;160628.78;5031422;28;20030;-63
2023/01/29 05:41:10;;;;;;;42.85;29.00;;;;;;;0.21;100.00;160628.78;5029674;28;20079;-63
2023/01/29 05:43:36;;;;;;;44.65;28.40;;;;;;;0.23;100.00;160634.16;5030756;28;20029;-63
2023/01/29 05:46:01;;;;;;;38.63;28.60;;;;;;;0.25;100.00;160639.53;5029746;28;20056;-63
2023/01/29 05:48:28;;;;;;;40.65;30.02;;;;;;;0.23;100.00;160634.16;5030667;28;20036;-63
2023/01/29 05:50:59;;;;;;;41.80;27.63;;;;;;;0.24;100.00;160636.84;5029815;28;20513;-64
2023/01/29 05:53:24;;;;;;;42.60;29.15;;;;;;;0.24;100.00;160636.84;5022286;28;20026;-63
2023/01/29 05:55:49;;;;;;;43.72;29.95;;;;;;;0.29;100.00;160650.22;5024807;28;20541;-63
2023/01/29 05:58:15;;;;;;;39.85;29.13;;;;;;;0.31;100.00;160655.59;5031203;28;20028;-63
2023/01/29 06:00:40;;;;;;;43.40;31.58;;;;;;;0.32;100.00;160656.94;5028674;28;20144;-65
2023/01/29 06:03:06;;;;;;;42.25;28.73;;;;;;;0.26;100.00;160642.16;5030249;28;20033;-64
2023/01/29 06:05:31;;;;;;;48.38;31.30;;;;;;;0.23;100.00;160634.16;5027433;28;20145;-64
2023/01/29 06:07:57;;;;;;;39.55;30.15;;;;;;;0.20;100.00;160626.09;5029980;28;20025;-64
2023/01/29 06:10:22;;;;;;;45.03;34.33;;;;;;;0.20;100.00;160626.09;5028797;28;20049;-63
2023/01/29 06:12:47;;;;;;;53.15;37.50;;;;;;;0.18;100.00;160620.78;5031456;28;20022;-63
2023/01/29 06:15:18;;;;;;;46.65;31.75;;;;;;;0.17;100.00;160618.09;5016160;28;20072;-63
2023/01/29 06:17:44;;;;;;;42.35;29.83;;;;;;;0.07;100.00;160591.25;5029765;28;20104;-63
2023/01/29 06:20:09;;;;;;;46.22;32.97;;;;;;;0.13;100.00;160607.34;5027754;28;20021;-63
2023/01/29 06:22:35;;;;;;;49.53;31.23;;;;;;;0.10;100.00;160599.31;5009465;28;20022;-63
2023/01/29 06:25:00;;;;;;;47.13;30.85;;;;;;;0.07;100.00;160591.25;5028873;28;20392;-63
2023/01/29 06:27:26;;;;;;;46.20;33.00;;;;;;;0.08;100.00;160593.94;5029565;28;20018;-64
2023/01/29 06:29:51;;;;;;;42.47;32.13;;;;;;;0.06;100.00;160589.94;5029355;28;20059;-63
2023/01/29 06:32:16;;;;;;;45.42;30.58;;;;;;;0.04;100.00;160584.56;5027974;28;20046;-63
2023/01/29 06:34:42;;;;;;;46.67;33.40;;;;;;;0.06;100.00;160588.56;5029851;28;20040;-63
2023/01/29 06:37:07;;;;;;;44.25;31.35;;;;;;;0.02;100.00;160577.88;5026009;28;20049;-63
2023/01/29 06:39:33;;;;;;;50.65;32.83;;;;;;;0.05;100.00;160587.25;5030105;28;20025;-63
2023/01/29 06:41:58;;;;;;;45.80;34.85;;;;;;;0.07;100.00;160591.25;5027710;28;20037;-63
2023/01/29 06:44:24;;;;;;;45.05;35.25;;;;;;;0.05;100.00;160585.88;5028521;28;20660;-63
2023/01/29 06:46:49;;;;;;;48.45;33.22;;;;;;;0.04;100.00;160583.25;5029001;28;20037;-62
2023/01/29 06:49:15;;;;;;;52.92;36.17;;;;;;;0.06;100.00;160589.94;5025345;28;20026;-62
2023/01/29 06:51:40;;;;;;;43.78;32.33;;;;;;;0.07;100.00;160591.25;5027559;28;20049;-62
2023/01/29 06:54:07;;;;;;;48.75;30.85;;;;;;;0.06;100.00;160588.56;5030006;28;20029;-62
2023/01/29 06:56:32;;;;;;;50.30;34.33;;;;;;;0.07;100.00;160591.25;5028704;28;20049;-62
2023/01/29 06:58:58;;;;;;;46.55;32.22;;;;;;;0.09;100.00;160596.63;5029340;28;20798;-61
2023/01/29 07:01:23;;;;;;;48.08;33.53;;;;;;;0.08;100.00;160595.25;5028179;28;20042;-62
2023/01/29 07:03:50;;;;;;;50.83;35.35;;;;;;;0.09;100.00;160596.63;5030293;28;20029;-62
2023/01/29 07:06:16;;;;;;;47.88;33.67;;;;;;;0.12;100.00;160604.66;5026571;28;20054;-62
2023/01/29 07:08:41;;;;;;;46.88;31.92;;;;;;;0.09;100.00;160596.63;5028173;28;20040;-61
2023/01/29 07:11:07;;;;;;;45.95;31.75;;;;;;;0.08;100.00;160593.94;5028239;28;20045;-62
2023/01/29 07:13:32;;;;;;;47.20;33.40;;;;;;;0.10;100.00;160599.31;5028607;28;20030;-61
2023/01/29 07:16:02;;;;;;;47.67;33.70;;;;;;;0.10;100.00;160599.31;5028513;28;20067;-62
2023/01/29 07:18:28;;;;;;;50.28;35.42;;;;;;;0.12;100.00;160604.66;5029619;28;20465;-61
2023/01/29 07:20:53;;;;;;;46.25;32.63;;;;;;;0.12;100.00;160604.66;5027761;28;20052;-61
2023/01/29 07:23:19;;;;;;;47.45;34.30;;;;;;;0.11;100.00;160603.31;5029202;28;20389;-61
2023/01/29 07:25:44;;;;;;;52.15;35.25;;;;;;;-0.04;100.00;160563.13;5028577;28;20083;-61
2023/01/29 07:28:09;;;;;;;54.28;37.20;;;;;;;0.13;100.00;160607.34;5024473;28;20032;-61
2023/01/29 07:30:35;;;;;;;51.35;35.03;;;;;;;0.09;100.00;160596.63;5008247;28;20048;-61
2023/01/29 07:33:03;;;;;;;54.70;33.40;;;;;;;0.08;100.00;160595.25;5030158;28;20090;-61
2023/01/29 07:35:28;;;;;;;50.47;35.10;;;;;;;0.12;100.00;160606.00;5027803;28;20052;-61
2023/01/29 07:37:53;;;;;;;48.38;35.60;;;;;;;0.10;100.00;160599.31;5028994;28;20025;-61
2023/01/29 07:40:19;;;;;;;55.63;35.40;;;;;;;0.10;100.00;160599.31;5027570;28;20037;-61
2023/01/29 07:42:44;;;;;;;51.65;37.65;;;;;;;0.06;100.00;160589.94;5028558;28;20017;-61
2023/01/29 07:45:11;;;;;;;51.13;34.35;;;;;;;-0.02;100.00;160569.81;5026530;28;20029;-60
2023/01/29 07:47:36;;;;;;;55.75;37.03;;;;;;;0.04;100.00;160583.25;5029940;28;20405;-61
2023/01/29 07:50:02;;;;;;;52.10;35.45;;;;;;;-0.05;100.00;160560.44;5026358;28;20092;-61
2023/01/29 07:52:29;;;;;;;50.50;37.70;;;;;;;-0.01;100.00;160572.50;5027873;28;20025;-61
2023/01/29 07:54:54;;;;;;;51.58;36.83;;;;;;;0.03;100.00;160580.56;5032535;28;20022;-60
2023/01/29 07:57:20;;;;;;;52.58;36.00;;;;;;;0.06;100.00;160588.56;5032019;28;20459;-61
2023/01/29 07:59:45;;;;;;;46.13;34.65;;;;;;;0.07;100.00;160591.25;5031376;28;20029;-61
2023/01/29 08:02:11;;;;;;;45.13;35.60;;;;;;;0.10;100.00;160599.31;5032013;28;20136;-60
2023/01/29 08:04:36;;;;;;;48.25;33.65;;;;;;;0.10;100.00;160599.31;5033453;28;20029;-60
2023/01/29 08:07:03;;;;;;;47.90;36.10;;;;;;;0.06;100.00;160589.94;5030432;28;20084;-61
2023/01/29 08:09:29;;;;;;;51.20;33.80;;;;;;;0.06;100.00;160589.94;5033158;28;20028;-61
2023/01/29 08:11:54;;;;;;;53.83;37.67;;;;;;;0.02;100.00;160579.19;5031071;28;20045;-61
2023/01/29 08:14:19;;;;;;;47.55;35.17;;;;;;;0.05;100.00;160587.25;5030849;28;20033;-60
2023/01/29 08:16:45;;;;;;;53.78;37.20;;;;;;;0.05;100.00;160585.88;5031239;28;20041;-60
2023/01/29 08:19:10;;;;;;;56.20;37.78;;;;;;;0.09;100.00;160596.63;5033266;28;20096;-60
2023/01/29 08:21:35;;;;;;;52.53;37.90;;;;;;;0.09;100.00;160596.63;5029924;28;20053;-60
2023/01/29 08:24:01;;;;;;;54.80;35.70;;;;;;;0.16;100.00;160615.41;5032833;28;20083;-61
2023/01/29 08:26:26;;;;;;;41.38;32.47;;;;;;;0.21;100.00;160628.78;5031311;28;20045;-60
2023/01/29 08:28:52;;;;;;;46.20;32.67;;;;;;;0.22;100.00;160631.47;5031288;28;20049;-60
2023/01/29 08:31:19;;;;;;;50.42;34.47;;;;;;;0.26;100.00;160642.16;5030267;28;20056;-60
2023/01/29 08:33:45;;;;;;;49.05;33.30;;;;;;;0.30;100.00;160651.56;5032417;28;20060;-61
2023/01/29 08:36:10;;;;;;;46.33;33.60;;;;;;;0.26;100.00;160642.16;5028323;28;20037;-60
2023/01/29 08:38:36;;;;;;;48.35;33.90;;;;;;;0.25;100.00;160638.16;5030392;28;20392;-60
2023/01/29 08:41:01;;;;;;;45.45;31.90;;;;;;;0.40;100.00;160678.38;5030361;28;20045;-60
2023/01/29 08:43:26;;;;;;;49.80;34.53;;;;;;;0.42;100.00;160682.38;5029967;28;20041;-60
2023/01/29 08:45:52;;;;;;;43.50;29.30;;;;;;;0.48;100.00;160698.50;5030574;28;20052;-60
2023/01/29 08:48:17;;;;;;;44.67;31.13;;;;;;;0.48;100.00;160698.50;5030566;28;20072;-60
2023/01/29 08:50:42;;;;;;;46.78;34.15;;;;;;;0.59;100.00;160727.97;5028613;28;20037;-60
2023/01/29 08:53:08;;;;;;;42.83;33.80;;;;;;;0.66;100.00;160745.44;5032556;28;20034;-60
2023/01/29 08:55:40;;;;;;;43.55;29.45;;;;;;;0.69;100.00;160752.13;5029934;28;20640;-60
2023/01/29 08:58:09;;;;;;;46.35;31.45;;;;;;;0.77;100.00;160773.59;5030988;28;20026;-60
2023/01/29 09:00:34;;;;;;;35.72;29.45;;;;;;;0.80;100.00;160781.59;5029215;28;20268;-60
2023/01/29 09:03:00;;;;;;;42.92;31.70;;;;;;;0.85;100.00;160795.03;5032070;28;20120;-61
2023/01/29 09:05:27;;;;;;;47.70;35.60;;;;;;;0.89;100.00;160805.75;5027982;28;20064;-60
2023/01/29 09:07:52;;;;;;;40.38;29.98;;;;;;;0.92;100.00;160813.81;5031973;28;20063;-61
2023/01/29 09:10:18;;;;;;;43.95;31.92;;;;;;;0.92;100.00;160813.81;5029654;28;20053;-60
2023/01/29 09:12:43;;;;;;;44.80;31.88;;;;;;;0.94;100.00;160819.16;5030246;28;20357;-60
2023/01/29 09:15:09;;;;;;;48.20;33.70;;;;;;;0.94;100.00;160819.16;5030311;28;20044;-60
2023/01/29 09:17:34;;;;;;;40.95;30.90;;;;;;;0.92;100.00;160813.81;5031657;28;20025;-61
2023/01/29 09:20:00;;;;;;;42.47;31.38;;;;;;;0.94;100.00;160819.16;5029324;28;20521;-60
2023/01/29 09:22:26;;;;;;;47.28;31.42;;;;;;;0.99;100.00;160829.91;5031310;28;20040;-60
2023/01/29 09:24:51;;;;;;;39.42;29.02;;;;;;;1.04;100.00;160843.28;5031781;28;20753;-61
2023/01/29 09:27:16;;;;;;;43.95;33.15;;;;;;;1.08;100.00;160854.06;5028798;28;20108;-61
2023/01/29 09:29:42;;;;;;;44.42;33.63;;;;;;;1.12;100.00;160864.75;5031612;28;20083;-60
2023/01/29 09:32:07;;;;;;;46.10;30.15;;;;;;;1.17;100.00;160878.16;5030079;28;20508;-60
2023/01/29 09:34:33;;;;;;;42.50;32.08;;;;;;;1.19;100.00;160882.22;5029208;28;20033;-60
2023/01/29 09:36:58;;;;;;;42.03;30.20;;;;;;;1.19;100.00;160883.53;5030069;28;20038;-60
2023/01/29 09:39:23;;;;;;;43.17;33.00;;;;;;;1.19;100.00;160883.53;5031833;28;20033;-60
2023/01/29 09:42:02;;;;;;;38.83;31.52;;;;;;;1.18;100.00;160880.84;5029026;28;20587;-60
2023/01/29 09:44:59;;;;;;;44.15;30.20;;;;;;;1.14;100.00;160870.13;5031780;28;20029;-60
2023/01/29 09:47:26;;;;;;;43.42;29.85;;;;;;;1.19;100.00;160883.53;5029793;28;20095;-60
2023/01/29 09:49:56;;;;;;;42.88;31.92;;;;;;;1.22;100.00;160891.59;5029691;28;20041;-60
2023/01/29 09:52:30;;;;;;;43.15;31.05;;;;;;;1.22;100.00;160890.22;5029513;28;20109;-60
2023/01/29 09:55:07;;;;;;;42.67;31.45;;;;;;;1.30;100.00;160910.38;5031879;28;20021;-60
2023/01/29 09:57:52;;;;;;;41.47;32.05;;;;;;;1.31;100.00;160914.38;5028167;28;20095;-60
2023/01/29 10:00:21;;;;;;;41.42;30.20;;;;;;;1.30;100.00;160910.38;5029498;28;20075;-60
2023/01/29 10:02:55;;;;;;;;;;;;;;;1.35;100.00;160923.78;5031787;28;20026;-60
2023/01/29 10:05:41;;;;;;;38.35;27.50;;;;;;;1.32;100.00;160915.72;5027749;28;20423;-60
2023/01/29 10:08:28;;;;;;;40.45;28.00;;;;;;;1.27;100.00;160905.00;5030842;28;20041;-60
2023/01/29 10:11:21;;;;;;;50.03;33.55;;;;;;;1.32;100.00;160915.72;5029647;28;20111;-60
2023/01/29 10:14:12;;;;;;;40.67;29.38;;;;;;;1.34;100.00;160921.09;5031115;28;20052;-60
2023/01/29 10:17:07;;;;;;;42.72;29.65;;;;;;;1.35;100.00;160923.78;5014681;28;20176;-60
2023/01/29 10:19:56;;;;;;;44.95;31.83;;;;;;;1.38;100.00;160931.78;5008896;28;20045;-60
2023/01/29 10:22:49;;;;;;;48.38;33.00;;;;;;;1.41;100.00;160939.88;5009229;28;20400;-60
2023/01/29 10:25:17;;;;;;;40.15;30.05;;;;;;;1.42;100.00;160942.56;4997507;28;20061;-60
2023/01/29 10:27:49;;;;;;;43.67;31.52;;;;;;;1.42;100.00;160942.56;5009275;28;20030;-61
2023/01/29 10:30:31;;;;;;;43.40;28.95;;;;;;;1.42;100.00;160943.88;5008441;28;20500;-60
2023/01/29 10:33:02;;;;;;;42.92;31.23;;;;;;;1.48;100.00;160957.31;5000872;28;20091;-60
2023/01/29 10:35:36;;;;;;;52.80;30.88;;;;;;;1.43;100.00;160946.56;5011028;28;20041;-60
2023/01/29 10:38:18;;;;;;;41.20;30.35;;;;;;;1.53;100.00;160970.72;5030692;28;20550;-60
2023/01/29 10:41:01;;;;;;;39.45;29.02;;;;;;;1.57;100.00;160982.81;5011040;28;20037;-60
2023/01/29 10:43:45;;;;;;;33.83;26.20;;;;;;;1.63;100.00;160996.22;5029686;28;20056;-60
2023/01/29 10:46:29;;;;;;;37.90;27.48;;;;;;;1.62;100.00;160993.53;5029260;28;20041;-60
2023/01/29 10:49:18;;;;;;;39.25;29.13;;;;;;;1.65;100.00;161002.91;5029141;28;20112;-60
2023/01/29 10:51:49;;;;;;;;;;;;;;;1.70;100.00;161015.00;5029584;28;20124;-60
2023/01/29 10:54:49;;;;;;;32.15;26.70;;;;;;;1.65;100.00;161002.91;5029440;28;19920;-60
2023/01/29 10:57:33;;;;;;;37.28;27.95;;;;;;;1.61;100.00;160990.81;4985717;28;20101;-60
2023/01/29 11:00:11;;;;;;;40.47;27.77;;;;;;;1.64;100.00;161000.22;5009894;28;20057;-55
2023/01/29 11:02:43;;;;;;;33.85;22.63;;;;;;;1.68;100.00;161009.59;5029958;28;20032;-60
2023/01/29 11:05:24;;;;;;;39.90;27.15;;;;;;;1.71;100.00;161017.69;5027847;28;20030;-59
2023/01/29 11:08:04;;;;;;;41.10;30.13;;;;;;;1.74;100.00;161027.06;5029909;28;20083;-60
2023/01/29 11:10:32;;;;;;;39.40;28.45;;;;;;;1.72;100.00;161020.38;5027788;28;20044;-60
2023/01/29 11:12:58;;;;;;;45.00;32.38;;;;;;;1.79;100.00;161039.16;5030050;28;20025;-60
2023/01/29 11:15:29;;;;;;;34.58;27.13;;;;;;;1.83;100.00;161048.53;5028276;28;20037;-60
2023/01/29 11:18:21;;;;;;;38.95;26.52;;;;;;;1.90;100.00;161068.66;5029287;28;20087;-60
2023/01/29 11:20:59;;;;;;;36.70;27.88;;;;;;;1.91;100.00;161070.03;5027159;28;20068;-60
2023/01/29 11:23:32;;;;;;;44.03;29.65;;;;;;;1.88;100.00;161063.31;5030168;28;20025;-60
2023/01/29 11:25:59;;;;;;;37.17;26.92;;;;;;;1.84;100.00;161052.56;5026857;28;20413;-60
2023/01/29 11:28:48;;;;;;;34.83;25.52;;;;;;;1.88;100.00;161063.31;5025249;28;20030;-60
2023/01/29 11:31:24;;;;;;;38.42;29.27;;;;;;;1.85;100.00;161055.25;5027902;28;20149;-60
2023/01/29 11:33:53;;;;;;;36.28;26.73;;;;;;;1.78;100.00;161035.16;5032626;28;20041;-61
2023/01/29 11:36:33;;;;;;;40.08;27.90;;;;;;;1.82;100.00;161045.84;5031954;28;20045;-60
2023/01/29 11:39:07;;;;;;;41.95;29.08;;;;;;;1.77;100.00;161033.78;5032488;28;20112;-60
2023/01/29 11:41:42;;;;;;;42.67;28.80;;;;;;;1.87;100.00;161060.63;5032151;28;20053;-60
2023/01/29 11:44:18;;;;;;;38.67;30.15;;;;;;;1.94;100.00;161076.72;5033908;28;20420;-61
2023/01/29 11:46:43;;;;;;;37.75;27.58;;;;;;;2.00;100.00;161092.81;5018153;28;20037;-61
2023/01/29 11:49:23;;;;;;;35.78;27.35;;;;;;;1.95;100.00;161079.41;5013927;28;20033;-61
2023/01/29 11:51:55;;;;;;;36.72;28.13;;;;;;;1.99;100.00;161090.13;5012776;28;20053;-61
2023/01/29 11:54:27;;;;;;;37.58;28.67;;;;;;;1.93;100.00;161074.03;5013219;28;20156;-61
2023/01/29 11:56:53;;;;;;;33.42;24.60;;;;;;;2.01;100.00;161095.50;5010961;28;20042;-61